Andes, New York
Current Conditions -  °F | °C
As of 7:15 PM on Friday 24 Oct 2014 (Local Time) from KMSV Reporting Station
Clear Clear  
Wind Chill: 54°   Ceiling: Unl
Heat Index: 54°   Visibility: 10mi
Dew Point: 36°   Wind: 14mph
Humidity: 51%   Direction: 310°NW
Pressure: 29.84"   Gusts: 20mph
Location:  42.19°N, 74.79°W
Report Text: KMSV 242315Z AUTO 31012G17KT 10SM CLR 12/02 A2984 RMK AO1
Loading
Personal Weather Stations






























Interactive Weather Map New forecast layout! Learn more

10-Day Weather Forecast

Advertisements
Track Severe Weather on mobile